Time;durP1;ratioP1;P1;durP2;ratioP2;P2;SDS_P1;SDS_P2;PMS_P1;PMS_P2;Temp;Humidity;BMP_temperature;BMP_pressure;BME280_temperature;BME280_humidity;BME280_pressure;Samples;Min_cycle;Max_cycle;Signal;HPM_P1;HPM_P2
2023/06/11 00:01:56;;;;;;;;;;;;;;;15.58;97.85;94655.03;4974345;28;1975;-53
2023/06/11 00:04:27;;;;;;;;;;;;;;;15.59;97.98;94659.38;4974343;28;920;-53
2023/06/11 00:06:54;;;;;;;;;;;;;;;15.65;97.58;94655.88;4974348;28;1015;-55
2023/06/11 00:09:22;;;;;;;;;;;;;;;15.50;97.43;94656.06;4974201;28;1890;-53
2023/06/11 00:11:48;;;;;;;;;;;;;;;15.30;98.30;94647.09;4974464;28;1034;-53
2023/06/11 00:14:14;;;;;;;;;;;;;;;15.32;99.19;94648.53;4974540;28;1026;-53
2023/06/11 00:16:43;;;;;;;;;;;;;;;15.43;98.46;94656.03;4973248;28;2599;-53
2023/06/11 00:19:09;;;;;;;;;;;;;;;15.31;98.46;94659.50;4974170;28;1092;-53
2023/06/11 00:21:36;;;;;;;;;;;;;;;15.27;98.60;94648.34;4974088;28;1906;-53
2023/06/11 00:24:02;;;;;;;;;;;;;;;15.34;98.90;94651.84;4970923;28;1871;-53
2023/06/11 00:26:28;;;;;;;;;;;;;;;15.58;97.89;94663.94;4974087;28;1074;-53
2023/06/11 00:28:54;;;;;;;;;;;;;;;15.59;97.74;94660.22;4974038;28;1079;-53
2023/06/11 00:31:20;;;;;;;;;;;;;;;15.60;97.55;94661.88;4974265;28;1119;-53
2023/06/11 00:33:46;;;;;;;;;;;;;;;15.45;97.95;94666.59;4973504;28;2217;-53
2023/06/11 00:36:13;;;;;;;;;;;;;;;15.38;98.08;94668.44;4973629;28;2912;-53
2023/06/11 00:38:40;;;;;;;;;;;;;;;15.49;97.61;94659.78;4974391;28;1037;-53
2023/06/11 00:41:06;;;;;;;;;;;;;;;15.59;97.67;94662.91;4973979;28;1999;-53
2023/06/11 00:43:32;;;;;;;;;;;;;;;15.58;98.23;94663.13;4977646;28;1050;-53
2023/06/11 00:46:02;;;;;;;;;;;;;;;15.55;97.89;94660.81;4977764;28;1081;-53
2023/06/11 00:48:28;;;;;;;;;;;;;;;15.53;97.59;94649.41;4977790;28;1029;-53
2023/06/11 00:50:54;;;;;;;;;;;;;;;15.25;97.49;94654.94;4977489;28;966;-53
2023/06/11 00:53:21;;;;;;;;;;;;;;;15.06;98.11;94649.25;4977727;28;972;-53
2023/06/11 00:55:47;;;;;;;;;;;;;;;14.99;98.87;94656.50;4977807;28;1089;-53
2023/06/11 00:58:15;;;;;;;;;;;;;;;15.32;97.59;94645.84;4977636;28;1007;-53
2023/06/11 01:00:42;;;;;;;;;;;;;;;15.29;97.33;94653.50;4977418;28;1911;-53
2023/06/11 01:03:10;;;;;;;;;;;;;;;15.18;98.25;94657.63;4977307;28;1105;-53
2023/06/11 01:05:43;;;;;;;;;;;;;;;15.06;99.19;94661.91;4977341;28;1017;-53
2023/06/11 01:08:12;;;;;;;;;;;;;;;15.18;99.05;94658.44;4977544;28;1022;-53
2023/06/11 01:10:40;;;;;;;;;;;;;;;15.38;96.79;94660.34;4977384;28;1016;-53
2023/06/11 01:13:06;;;;;;;;;;;;;;;15.31;97.82;94664.88;4977380;28;983;-53
2023/06/11 01:15:32;;;;;;;;;;;;;;;15.31;98.23;94656.81;4977121;28;974;-53
2023/06/11 01:18:02;;;;;;;;;;;;;;;15.33;98.11;94652.91;4977194;28;1055;-53
2023/06/11 01:20:42;;;;;;;;;;;;;;;15.32;98.35;94653.91;4977134;28;1914;-53
2023/06/11 01:23:14;;;;;;;;;;;;;;;15.25;98.14;94655.75;4977218;28;982;-53
2023/06/11 01:25:44;;;;;;;;;;;;;;;15.19;98.40;94656.56;4974344;28;1546;-53
2023/06/11 01:28:12;;;;;;;;;;;;;;;15.13;98.69;94649.31;4977190;28;975;-53
2023/06/11 01:30:43;;;;;;;;;;;;;;;15.00;98.19;94656.28;4976680;28;1076;-53
2023/06/11 01:33:10;;;;;;;;;;;;;;;14.67;99.56;94650.75;4976978;28;982;-52
2023/06/11 01:35:36;;;;;;;;;;;;;;;14.56;100.00;94638.66;4977042;28;1118;-53
2023/06/11 01:38:02;;;;;;;;;;;;;;;14.76;100.00;94648.72;4976932;28;1014;-52
2023/06/11 01:40:29;;;;;;;;;;;;;;;14.80;100.00;94647.31;4976444;28;1993;-53
2023/06/11 01:42:55;;;;;;;;;;;;;;;14.93;99.48;94647.38;4976642;28;1056;-53
2023/06/11 01:45:22;;;;;;;;;;;;;;;14.95;99.42;94650.69;4976776;28;994;-53
2023/06/11 01:47:49;;;;;;;;;;;;;;;15.09;98.42;94651.56;4976796;28;1055;-53
2023/06/11 01:50:18;;;;;;;;;;;;;;;15.15;99.46;94655.31;4976388;28;1035;-53
2023/06/11 01:52:45;;;;;;;;;;;;;;;15.15;98.63;94663.38;4976402;28;1051;-53
2023/06/11 01:55:11;;;;;;;;;;;;;;;15.21;98.73;94649.13;4976429;28;967;-53
2023/06/11 01:57:38;;;;;;;;;;;;;;;15.03;99.96;94658.59;4976475;28;994;-53
2023/06/11 02:00:11;;;;;;;;;;;;;;;14.84;99.25;94662.03;4976203;28;1911;-53
2023/06/11 02:02:40;;;;;;;;;;;;;;;14.86;98.54;94667.22;4976480;28;1045;-53
2023/06/11 02:05:07;;;;;;;;;;;;;;;14.81;98.55;94667.78;4976219;28;970;-53
2023/06/11 02:07:33;;;;;;;;;;;;;;;14.69;99.26;94674.78;4976378;28;1034;-53
2023/06/11 02:09:59;;;;;;;;;;;;;;;14.44;100.00;94675.22;4976156;28;1059;-53
2023/06/11 02:12:25;;;;;;;;;;;;;;;14.55;100.00;94671.13;4976006;28;1055;-53
2023/06/11 02:14:51;;;;;;;;;;;;;;;14.78;99.65;94678.97;4959172;28;1253;-53
2023/06/11 02:17:17;;;;;;;;;;;;;;;14.89;99.43;94670.34;4975887;28;1075;-53
2023/06/11 02:19:43;;;;;;;;;;;;;;;15.01;99.74;94671.41;4976028;28;1051;-53
2023/06/11 02:22:09;;;;;;;;;;;;;;;15.16;99.26;94665.06;4976119;28;1902;-53
2023/06/11 02:24:35;;;;;;;;;;;;;;;15.24;98.79;94670.25;4975733;28;1714;-53
2023/06/11 02:27:01;;;;;;;;;;;;;;;15.34;97.62;94659.94;4975864;28;976;-53
2023/06/11 02:29:27;;;;;;;;;;;;;;;15.50;96.56;94663.28;4975566;28;1108;-53
2023/06/11 02:31:53;;;;;;;;;;;;;;;15.62;95.57;94661.66;4975817;28;944;-53
2023/06/11 02:34:19;;;;;;;;;;;;;;;15.45;97.01;94665.78;4958484;28;943;-53
2023/06/11 02:36:45;;;;;;;;;;;;;;;15.03;97.13;94658.59;4975655;28;1062;-53
2023/06/11 02:39:11;;;;;;;;;;;;;;;14.88;97.50;94665.97;4975809;28;1090;-53
2023/06/11 02:41:37;;;;;;;;;;;;;;;14.83;99.85;94671.09;4975474;28;1907;-53
2023/06/11 02:44:04;;;;;;;;;;;;;;;15.05;99.37;94673.72;4975675;28;1004;-53
2023/06/11 02:46:30;;;;;;;;;;;;;;;15.15;99.30;94671.47;4975327;28;1078;-53
2023/06/11 02:48:56;;;;;;;;;;;;;;;15.07;98.38;94674.34;4975479;28;971;-54
2023/06/11 02:51:22;;;;;;;;;;;;;;;14.81;99.50;94675.88;4975437;28;1027;-53
2023/06/11 02:53:48;;;;;;;;;;;;;;;14.80;100.00;94674.22;4975488;28;1025;-54
2023/06/11 02:56:14;;;;;;;;;;;;;;;14.72;99.99;94677.91;4975154;28;1116;-53
2023/06/11 02:58:40;;;;;;;;;;;;;;;14.74;99.91;94681.22;4975483;28;1232;-53
2023/06/11 03:01:06;;;;;;;;;;;;;;;14.87;99.75;94691.22;4975445;28;1993;-54
2023/06/11 03:03:32;;;;;;;;;;;;;;;14.91;99.84;94689.81;4973874;28;2933;-54
2023/06/11 03:05:58;;;;;;;;;;;;;;;14.86;100.00;94681.50;4974407;28;1094;-54
2023/06/11 03:08:24;;;;;;;;;;;;;;;14.84;99.49;94692.44;4974993;28;1098;-54
2023/06/11 03:10:50;;;;;;;;;;;;;;;14.72;100.00;94685.97;4975145;28;1046;-53
2023/06/11 03:13:16;;;;;;;;;;;;;;;14.59;100.00;94696.66;4974899;28;1109;-53
2023/06/11 03:15:42;;;;;;;;;;;;;;;14.49;100.00;94699.63;4974861;28;1884;-53
2023/06/11 03:18:08;;;;;;;;;;;;;;;14.69;100.00;94699.81;4974826;28;1090;-53
2023/06/11 03:20:34;;;;;;;;;;;;;;;14.92;100.00;94706.78;4974854;28;1985;-53
2023/06/11 03:23:01;;;;;;;;;;;;;;;15.07;99.43;94703.97;4974860;28;1071;-52
2023/06/11 03:25:27;;;;;;;;;;;;;;;15.26;99.52;94705.91;4974521;28;1844;-53
2023/06/11 03:27:54;;;;;;;;;;;;;;;15.43;99.56;94706.38;4975049;28;1037;-53
2023/06/11 03:30:20;;;;;;;;;;;;;;;15.52;99.47;94710.56;4974458;28;1246;-52
2023/06/11 03:32:46;;;;;;;;;;;;;;;15.32;97.93;94710.47;4974644;28;1067;-52
2023/06/11 03:35:12;;;;;;;;;;;;;;;15.34;98.93;94715.66;4974568;28;1082;-52
2023/06/11 03:37:38;;;;;;;;;;;;;;;15.26;99.81;94713.97;4974680;28;1035;-53
2023/06/11 03:40:04;;;;;;;;;;;;;;;15.48;99.29;94728.16;4974613;28;1995;-52
2023/06/11 03:42:30;;;;;;;;;;;;;;;15.60;99.24;94706.84;4974409;28;1051;-53
2023/06/11 03:44:56;;;;;;;;;;;;;;;15.72;99.28;94707.91;4974753;28;1073;-53
2023/06/11 03:47:22;;;;;;;;;;;;;;;15.88;98.77;94708.59;4974523;28;1039;-53
2023/06/11 03:49:50;;;;;;;;;;;;;;;15.93;98.03;94706.13;4974600;28;1285;-52
2023/06/11 03:52:16;;;;;;;;;;;;;;;15.97;98.80;94705.53;4974378;28;999;-52
2023/06/11 03:54:42;;;;;;;;;;;;;;;16.02;99.32;94701.38;4974476;28;995;-53
2023/06/11 03:57:08;;;;;;;;;;;;;;;16.15;98.02;94698.69;4974347;28;1880;-53
2023/06/11 03:59:34;;;;;;;;;;;;;;;16.20;98.91;94697.03;4974678;28;968;-52
2023/06/11 04:02:00;;;;;;;;;;;;;;;16.19;99.47;94700.75;4974499;28;2046;-52
2023/06/11 04:04:26;;;;;;;;;;;;;;;16.24;100.00;94696.59;4974528;28;982;-52
2023/06/11 04:06:53;;;;;;;;;;;;;;;16.25;99.90;94703.66;4974277;28;1110;-52
2023/06/11 04:09:19;;;;;;;;;;;;;;;16.26;100.00;94702.63;4974580;28;1029;-52
2023/06/11 04:11:45;;;;;;;;;;;;;;;16.34;100.00;94705.94;4972973;28;2564;-52
2023/06/11 04:14:11;;;;;;;;;;;;;;;16.57;96.61;94707.38;4973777;28;2914;-53
2023/06/11 04:16:37;;;;;;;;;;;;;;;16.71;96.62;94705.50;4976057;28;2861;-53
2023/06/11 04:19:03;;;;;;;;;;;;;;;16.92;96.64;94709.84;4978325;28;1122;-54
2023/06/11 04:21:29;;;;;;;;;;;;;;;17.03;95.73;94711.91;4977982;28;1910;-54
2023/06/11 04:23:55;;;;;;;;;;;;;;;17.10;93.49;94709.19;4974898;28;1692;-54
2023/06/11 04:26:23;;;;;;;;;;;;;;;17.32;91.19;94712.44;4978131;28;1051;-53
2023/06/11 04:28:50;;;;;;;;;;;;;;;17.42;90.88;94706.59;4977974;28;1083;-54
2023/06/11 04:31:16;;;;;;;;;;;;;;;17.55;89.80;94717.34;4977973;28;984;-54
2023/06/11 04:33:42;;;;;;;;;;;;;;;17.84;89.25;94707.84;4977999;28;1066;-54
2023/06/11 04:36:08;;;;;;;;;;;;;;;18.04;87.33;94707.75;4978131;28;1041;-54
2023/06/11 04:38:36;;;;;;;;;;;;;;;18.28;85.70;94716.94;4977856;28;1272;-54
2023/06/11 04:41:05;;;;;;;;;;;;;;;18.39;85.36;94709.16;4976695;28;2997;-54
2023/06/11 04:43:34;;;;;;;;;;;;;;;18.38;85.72;94697.47;4977249;28;2947;-54
2023/06/11 04:46:03;;;;;;;;;;;;;;;18.69;83.86;94695.78;4959545;28;3131;-54
2023/06/11 04:48:31;;;;;;;;;;;;;;;18.87;82.89;94701.25;4958305;29;967;-54
2023/06/11 04:50:59;;;;;;;;;;;;;;;18.87;82.70;94697.72;4958304;29;1043;-53
2023/06/11 04:53:27;;;;;;;;;;;;;;;18.95;82.13;94699.31;4958348;29;1126;-54
2023/06/11 04:55:54;;;;;;;;;;;;;;;19.22;81.03;94692.56;4958159;29;1055;-54
2023/06/11 04:58:24;;;;;;;;;;;;;;;19.33;80.79;94682.00;4958314;29;1035;-54
2023/06/11 05:00:51;;;;;;;;;;;;;;;19.32;81.14;94686.59;4958262;29;1918;-54
2023/06/11 05:03:18;;;;;;;;;;;;;;;19.36;81.83;94690.50;4958002;29;1079;-52
2023/06/11 05:05:51;;;;;;;;;;;;;;;19.56;80.87;94697.56;4957988;29;1122;-55
2023/06/11 05:08:21;;;;;;;;;;;;;;;19.56;79.45;94698.41;4958148;29;1054;-55
2023/06/11 05:10:48;;;;;;;;;;;;;;;19.83;78.37;94689.94;4958047;29;1138;-55
2023/06/11 05:13:15;;;;;;;;;;;;;;;20.00;79.47;94687.41;4970903;28;2998;-55
2023/06/11 05:15:41;;;;;;;;;;;;;;;19.96;78.46;94697.09;4977481;28;1315;-55
2023/06/11 05:18:07;;;;;;;;;;;;;;;19.79;80.21;94696.91;4977394;28;979;-55
2023/06/11 05:20:33;;;;;;;;;;;;;;;19.50;81.23;94704.72;4976854;28;1985;-55
2023/06/11 05:22:59;;;;;;;;;;;;;;;19.38;81.83;94707.38;4976933;28;1133;-54
2023/06/11 05:25:28;;;;;;;;;;;;;;;19.40;84.70;94709.84;4977076;28;1622;-53
2023/06/11 05:28:03;;;;;;;;;;;;;;;19.57;82.68;94712.78;4976327;28;1337;-54
2023/06/11 05:30:33;;;;;;;;;;;;;;;19.69;81.90;94717.22;4976641;28;1198;-54
2023/06/11 05:33:00;;;;;;;;;;;;;;;19.81;80.26;94721.91;4976956;28;963;-53
2023/06/11 05:35:26;;;;;;;;;;;;;;;19.70;81.36;94721.56;4976669;28;1590;-53
2023/06/11 05:37:52;;;;;;;;;;;;;;;19.56;80.52;94721.97;4976772;28;1027;-53
2023/06/11 05:40:18;;;;;;;;;;;;;;;19.50;81.90;94720.97;4976624;28;1965;-54
2023/06/11 05:42:44;;;;;;;;;;;;;;;19.46;82.92;94722.50;4976708;28;1099;-54
2023/06/11 05:45:10;;;;;;;;;;;;;;;19.47;82.31;94716.03;4976779;28;995;-54
2023/06/11 05:47:36;;;;;;;;;;;;;;;19.58;81.75;94723.41;4976846;28;1022;-54
2023/06/11 05:50:03;;;;;;;;;;;;;;;19.69;81.71;94729.94;4976868;28;1058;-54
2023/06/11 05:52:29;;;;;;;;;;;;;;;19.82;82.55;94718.13;4976612;28;1067;-54
2023/06/11 05:54:55;;;;;;;;;;;;;;;19.95;82.84;94717.13;4976749;28;1039;-54
2023/06/11 05:57:22;;;;;;;;;;;;;;;20.04;81.48;94721.16;4976533;28;1039;-54
2023/06/11 05:59:49;;;;;;;;;;;;;;;20.01;82.81;94721.63;4976457;28;986;-54
2023/06/11 06:02:15;;;;;;;;;;;;;;;20.15;81.72;94716.84;4976472;28;1990;-54
2023/06/11 06:04:41;;;;;;;;;;;;;;;20.12;82.41;94717.28;4976498;28;1042;-54
2023/06/11 06:07:07;;;;;;;;;;;;;;;20.08;81.42;94717.75;4976288;28;1680;-54
2023/06/11 06:09:34;;;;;;;;;;;;;;;20.05;82.55;94707.38;4974952;28;2967;-54
2023/06/11 06:12:00;;;;;;;;;;;;;;;20.29;81.57;94702.81;4976486;28;979;-54
2023/06/11 06:14:26;;;;;;;;;;;;;;;20.72;81.33;94706.34;4976122;28;1046;-54
2023/06/11 06:16:52;;;;;;;;;;;;;;;21.15;78.40;94707.91;4976027;28;1079;-53
2023/06/11 06:19:18;;;;;;;;;;;;;;;21.72;76.89;94706.38;4975843;28;1878;-54
2023/06/11 06:21:44;;;;;;;;;;;;;;;22.06;75.65;94706.47;4976152;28;1918;-53
2023/06/11 06:24:11;;;;;;;;;;;;;;;22.33;76.67;94712.16;4975871;28;1711;-55
2023/06/11 06:26:40;;;;;;;;;;;;;;;22.52;73.90;94712.75;4976109;28;1050;-56
2023/06/11 06:29:07;;;;;;;;;;;;;;;22.72;73.75;94702.22;4975815;28;1118;-56
2023/06/11 06:31:36;;;;;;;;;;;;;;;22.65;76.20;94701.56;4975970;28;1291;-56
2023/06/11 06:34:03;;;;;;;;;;;;;;;22.44;76.20;94699.56;4975683;28;1051;-56
2023/06/11 06:36:29;;;;;;;;;;;;;;;22.58;73.41;94700.91;4975791;28;1080;-56
2023/06/11 06:38:56;;;;;;;;;;;;;;;22.48;75.98;94709.75;4974902;28;1055;-56
2023/06/11 06:41:22;;;;;;;;;;;;;;;22.57;73.20;94697.34;4975262;28;1919;-56
2023/06/11 06:43:48;;;;;;;;;;;;;;;22.81;71.91;94695.28;4975437;28;1063;-56
2023/06/11 06:46:14;;;;;;;;;;;;;;;23.03;71.20;94697.28;4975351;28;1038;-56
2023/06/11 06:48:40;;;;;;;;;;;;;;;23.29;69.09;94689.44;4975677;28;1142;-58
2023/06/11 06:51:06;;;;;;;;;;;;;;;23.55;70.76;94691.44;4975434;28;1138;-58
2023/06/11 06:53:33;;;;;;;;;;;;;;;23.44;70.84;94686.94;4975470;28;1039;-58
2023/06/11 06:56:00;;;;;;;;;;;;;;;23.31;67.88;94681.84;4975385;28;982;-58
2023/06/11 06:58:27;;;;;;;;;;;;;;;23.55;70.40;94680.53;4975265;28;1010;-58
2023/06/11 07:00:53;;;;;;;;;;;;;;;23.74;69.58;94686.47;4974991;28;2001;-58
2023/06/11 07:03:20;;;;;;;;;;;;;;;23.92;69.81;94685.38;4975109;28;1599;-58
2023/06/11 07:05:47;;;;;;;;;;;;;;;23.91;69.16;94689.16;4975089;28;1070;-58
2023/06/11 07:08:13;;;;;;;;;;;;;;;23.92;67.75;94688.09;4975015;28;1049;-58
2023/06/11 07:10:47;;;;;;;;;;;;;;;24.00;67.49;94678.63;4957858;28;1118;-58
2023/06/11 07:13:15;;;;;;;;;;;;;;;24.01;67.23;94682.19;4974965;28;1110;-58
2023/06/11 07:15:41;;;;;;;;;;;;;;;23.77;66.71;94680.53;4974890;28;1117;-58
2023/06/11 07:18:08;;;;;;;;;;;;;;;23.82;65.07;94679.78;4974971;28;1062;-58
2023/06/11 07:20:34;;;;;;;;;;;;;;;23.93;65.01;94688.91;4973402;28;2546;-58
2023/06/11 07:23:00;;;;;;;;;;;;;;;24.06;65.13;94683.06;4974985;28;963;-57
2023/06/11 07:25:30;;;;;;;;;;;;;;;24.20;67.22;94683.47;4974779;28;1649;-58
2023/06/11 07:28:01;;;;;;;;;;;;;;;24.20;64.92;94686.19;4974721;28;1129;-57
2023/06/11 07:30:27;;;;;;;;;;;;;;;24.46;63.13;94690.00;4974493;28;1173;-57
2023/06/11 07:32:54;;;;;;;;;;;;;;;24.47;62.72;94679.88;4974764;28;1054;-58
2023/06/11 07:35:20;;;;;;;;;;;;;;;24.54;63.34;94684.06;4974510;28;920;-59
2023/06/11 07:37:47;;;;;;;;;;;;;;;25.07;61.82;94681.47;4974763;28;1000;-56
2023/06/11 07:40:14;;;;;;;;;;;;;;;25.44;59.75;94694.31;4974358;28;1996;-58
2023/06/11 07:42:40;;;;;;;;;;;;;;;25.35;59.92;94692.38;4974357;28;1103;-59
2023/06/11 07:45:06;;;;;;;;;;;;;;;25.19;60.26;94658.56;4974802;28;995;-58
2023/06/11 07:47:32;;;;;;;;;;;;;;;25.38;61.68;94689.06;4974286;28;1113;-58
2023/06/11 07:49:58;;;;;;;;;;;;;;;24.98;61.22;94688.53;4974354;28;1121;-57
2023/06/11 07:52:25;;;;;;;;;;;;;;;24.80;62.46;94673.38;4957336;28;1258;-57
2023/06/11 07:54:51;;;;;;;;;;;;;;;24.73;64.88;94680.97;4974534;28;1063;-57
2023/06/11 07:57:17;;;;;;;;;;;;;;;24.78;61.96;94678.28;4974422;28;1881;-57
2023/06/11 07:59:43;;;;;;;;;;;;;;;24.96;63.52;94684.41;4974354;28;1145;-57
2023/06/11 08:02:10;;;;;;;;;;;;;;;24.89;64.04;94680.00;4974536;28;1991;-57
2023/06/11 08:04:37;;;;;;;;;;;;;;;24.67;62.98;94674.63;4974337;28;1063;-57
2023/06/11 08:07:03;;;;;;;;;;;;;;;24.98;63.86;94677.59;4974461;28;1365;-57
2023/06/11 08:09:30;;;;;;;;;;;;;;;25.52;62.64;94676.56;4974221;28;1051;-57
2023/06/11 08:11:56;;;;;;;;;;;;;;;25.66;62.23;94674.16;4974146;28;1260;-57
2023/06/11 08:14:22;;;;;;;;;;;;;;;25.99;62.33;94680.31;4974502;28;1007;-58
2023/06/11 08:16:48;;;;;;;;;;;;;;;26.13;60.87;94681.47;4974219;28;1047;-57
2023/06/11 08:19:14;;;;;;;;;;;;;;;26.16;57.14;94675.47;4974473;28;1035;-57
2023/06/11 08:21:41;;;;;;;;;;;;;;;26.27;59.03;94685.34;4974236;28;1906;-57
2023/06/11 08:24:07;;;;;;;;;;;;;;;26.37;57.86;94678.22;4974122;28;1435;-56
2023/06/11 08:26:34;;;;;;;;;;;;;;;26.20;59.77;94668.34;4974380;28;1043;-56
2023/06/11 08:29:00;;;;;;;;;;;;;;;26.01;58.21;94676.25;4974187;28;1084;-57
2023/06/11 08:31:26;;;;;;;;;;;;;;;26.35;59.80;94672.19;4972712;28;2571;-57
2023/06/11 08:33:52;;;;;;;;;;;;;;;26.43;57.88;94677.97;4974501;28;1327;-57
2023/06/11 08:36:19;;;;;;;;;;;;;;;26.53;57.47;94673.59;4973858;28;1130;-57
2023/06/11 08:38:47;;;;;;;;;;;;;;;26.84;56.50;94675.28;4973990;28;1106;-55
2023/06/11 08:41:14;;;;;;;;;;;;;;;26.98;55.21;94671.97;4973762;28;1950;-55
2023/06/11 08:43:41;;;;;;;;;;;;;;;27.11;55.75;94671.41;4974156;28;1031;-55
2023/06/11 08:46:12;;;;;;;;;;;;;;;26.88;56.14;94675.53;4974206;28;974;-54
2023/06/11 08:48:40;;;;;;;;;;;;;;;26.88;57.89;94678.28;4974232;28;1026;-54
2023/06/11 08:51:08;;;;;;;;;;;;;;;27.13;55.99;94671.97;4972874;28;3002;-55
2023/06/11 08:53:35;;;;;;;;;;;;;;;26.83;54.87;94678.28;4974135;28;1085;-57
2023/06/11 08:56:01;;;;;;;;;;;;;;;26.26;54.82;94672.72;4973814;28;1060;-57
2023/06/11 08:58:30;;;;;;;;;;;;;;;26.54;54.62;94669.75;4973841;28;1062;-59
2023/06/11 09:00:56;;;;;;;;;;;;;;;26.86;55.15;94656.63;4974096;28;1989;-57
2023/06/11 09:03:23;;;;;;;;;;;;;;;26.36;53.26;94660.97;4975376;28;1121;-57
2023/06/11 09:05:49;;;;;;;;;;;;;;;26.29;55.22;94661.25;4977378;28;1110;-56
2023/06/11 09:08:15;;;;;;;;;;;;;;;26.33;54.11;94650.53;4977214;28;1110;-58
2023/06/11 09:10:50;;;;;;;;;;;;;;;26.79;55.10;94653.34;4977206;28;959;-59
2023/06/11 09:13:17;;;;;;;;;;;;;;;27.08;55.42;94659.06;4977026;28;1071;-59
2023/06/11 09:15:52;;;;;;;;;;;;;;;27.29;52.87;94652.75;4977185;28;1587;-57
2023/06/11 09:18:19;;;;;;;;;;;;;;;27.51;55.19;94646.91;4977074;28;1067;-57
2023/06/11 09:43:18;;;;;;;;;;;;;;;27.58;50.47;94630.94;4952722;29;1143;-62
2023/06/11 09:45:44;;;;;;;;;;;;;;;27.68;50.35;94636.41;4975262;28;2602;-61
2023/06/11 09:48:14;;;;;;;;;;;;;;;27.48;50.46;94629.06;4976784;28;1010;-58
2023/06/11 09:50:41;;;;;;;;;;;;;;;27.46;52.48;94621.09;4976145;28;2624;-60
2023/06/11 09:53:09;;;;;;;;;;;;;;;27.69;50.02;94623.50;4976145;28;2948;-60
2023/06/11 09:55:36;;;;;;;;;;;;;;;27.91;50.34;94625.91;4976640;28;982;-58
2023/06/11 09:58:02;;;;;;;;;;;;;;;27.83;50.19;94633.59;4976369;28;1047;-60
2023/06/11 10:00:29;;;;;;;;;;;;;;;27.55;51.02;94618.63;4976189;28;1906;-59
2023/06/11 10:02:56;;;;;;;;;;;;;;;27.31;51.47;94617.59;4976183;28;1074;-59
2023/06/11 10:05:22;;;;;;;;;;;;;;;27.29;52.29;94608.84;4976395;28;967;-59
2023/06/11 10:07:55;;;;;;;;;;;;;;;27.26;51.83;94607.44;4976198;28;1109;-59
2023/06/11 10:10:22;;;;;;;;;;;;;;;27.07;53.45;94608.03;4976034;28;1034;-59
2023/06/11 10:12:49;;;;;;;;;;;;;;;26.48;52.70;94608.63;4976248;28;1010;-59
2023/06/11 10:15:16;;;;;;;;;;;;;;;26.13;54.59;94610.25;4975775;28;1180;-58
2023/06/11 10:17:48;;;;;;;;;;;;;;;25.99;57.29;94604.47;4976059;28;1035;-58
2023/06/11 10:20:19;;;;;;;;;;;;;;;25.82;57.77;94603.84;4976038;28;1938;-61
2023/06/11 10:22:45;;;;;;;;;;;;;;;25.70;56.67;94601.34;4976195;28;1028;-61
2023/06/11 10:25:12;;;;;;;;;;;;;;;25.72;56.60;94593.69;4975045;28;2134;-59
2023/06/11 10:27:40;;;;;;;;;;;;;;;25.71;56.83;94592.06;4975211;28;3103;-61
2023/06/11 10:30:07;;;;;;;;;;;;;;;25.81;57.07;94592.09;4975790;28;1055;-58
2023/06/11 10:32:33;;;;;;;;;;;;;;;25.63;56.98;94589.84;4975697;28;1055;-59
2023/06/11 10:35:04;;;;;;;;;;;;;;;25.59;59.21;94584.09;4975725;28;1063;-58
2023/06/11 10:37:33;;;;;;;;;;;;;;;25.63;57.93;94579.72;4975811;28;1038;-57
2023/06/11 10:40:00;;;;;;;;;;;;;;;25.62;58.78;94580.81;4975550;28;924;-57
2023/06/11 10:42:34;;;;;;;;;;;;;;;25.59;59.69;94578.63;4975444;28;1980;-57
2023/06/11 10:45:05;;;;;;;;;;;;;;;25.50;59.03;94594.72;4975508;28;1260;-58
2023/06/11 10:47:39;;;;;;;;;;;;;;;25.57;58.47;94593.66;4974972;28;3015;-57
2023/06/11 10:50:07;;;;;;;;;;;;;;;25.57;58.07;94585.44;4956327;29;1042;-59
2023/06/11 10:52:45;;;;;;;;;;;;;;;25.55;55.80;94587.63;4956062;29;1102;-57
2023/06/11 10:55:13;;;;;;;;;;;;;;;25.43;56.02;94591.41;4956022;29;1047;-58
2023/06/11 10:57:40;;;;;;;;;;;;;;;25.46;56.14;94595.53;4955965;29;1134;-58
2023/06/11 11:00:09;;;;;;;;;;;;;;;25.34;57.70;94593.03;4965410;28;3087;-56
2023/06/11 11:02:35;;;;;;;;;;;;;;;25.35;57.58;94581.00;4975184;28;2048;-55
2023/06/11 11:05:02;;;;;;;;;;;;;;;25.43;59.36;94574.19;4975356;28;974;-56
2023/06/11 11:07:33;;;;;;;;;;;;;;;25.44;60.87;94579.41;4975072;28;1051;-56
2023/06/11 11:10:00;;;;;;;;;;;;;;;25.58;58.97;94574.22;4975132;28;1070;-56
2023/06/11 11:12:33;;;;;;;;;;;;;;;25.47;65.85;94580.75;4975129;28;975;-56
2023/06/11 11:15:00;;;;;;;;;;;;;;;24.98;67.13;94581.06;4975120;28;1094;-56
2023/06/11 11:17:26;;;;;;;;;;;;;;;24.73;61.38;94571.63;4974929;28;1114;-56
2023/06/11 11:19:52;;;;;;;;;;;;;;;24.61;63.01;94574.56;4975213;28;1053;-56
2023/06/11 11:22:18;;;;;;;;;;;;;;;24.62;64.09;94569.91;4975025;28;1910;-57
2023/06/11 11:24:44;;;;;;;;;;;;;;;24.73;60.04;94569.69;4974863;28;1679;-57
2023/06/11 11:27:10;;;;;;;;;;;;;;;24.92;61.11;94566.53;4974510;28;979;-56
2023/06/11 11:29:37;;;;;;;;;;;;;;;25.22;58.76;94565.03;4974983;28;1050;-57
2023/06/11 11:32:03;;;;;;;;;;;;;;;25.48;58.87;94560.53;4974701;28;1046;-56
2023/06/11 11:34:29;;;;;;;;;;;;;;;25.94;58.05;94557.09;4974974;28;1055;-56
2023/06/11 11:36:55;;;;;;;;;;;;;;;26.35;56.65;94551.63;4973985;28;2205;-57
2023/06/11 11:39:21;;;;;;;;;;;;;;;26.45;53.86;94557.09;4973944;28;2877;-58
2023/06/11 11:41:48;;;;;;;;;;;;;;;26.09;58.52;94557.94;4973502;28;2566;-57
2023/06/11 11:44:14;;;;;;;;;;;;;;;25.80;55.71;94556.75;4974370;28;1087;-56
2023/06/11 11:46:40;;;;;;;;;;;;;;;25.53;58.04;94555.06;4974597;28;1071;-54
2023/06/11 11:49:07;;;;;;;;;;;;;;;25.40;62.46;94550.09;4973282;28;2571;-56
2023/06/11 11:51:37;;;;;;;;;;;;;;;25.39;60.72;94556.66;4974708;28;956;-56
2023/06/11 11:54:03;;;;;;;;;;;;;;;25.21;60.30;94550.56;4973855;28;2919;-56
2023/06/11 11:56:33;;;;;;;;;;;;;;;25.38;62.21;94539.41;4974026;28;2877;-56
2023/06/11 11:58:59;;;;;;;;;;;;;;;25.55;64.41;94543.84;4974444;28;1038;-56
2023/06/11 12:01:36;;;;;;;;;;;;;;;25.45;60.65;94534.50;4974416;28;2013;-56
2023/06/11 12:04:03;;;;;;;;;;;;;;;25.48;62.54;94539.44;4974459;28;976;-56
2023/06/11 12:06:30;;;;;;;;;;;;;;;25.62;58.27;94538.94;4957557;28;1198;-56
2023/06/11 12:08:56;;;;;;;;;;;;;;;25.87;57.53;94536.22;4974457;28;1100;-56
2023/06/11 12:11:22;;;;;;;;;;;;;;;26.01;56.71;94530.25;4974502;28;973;-56
2023/06/11 12:13:48;;;;;;;;;;;;;;;25.82;56.00;94538.13;4974268;28;1851;-56
2023/06/11 12:16:15;;;;;;;;;;;;;;;25.62;51.06;94541.66;4957096;28;1062;-56
2023/06/11 12:18:41;;;;;;;;;;;;;;;25.55;52.95;94538.38;4974220;28;1062;-55
2023/06/11 12:21:07;;;;;;;;;;;;;;;25.70;52.66;94541.13;4974327;28;1989;-56
2023/06/11 12:23:33;;;;;;;;;;;;;;;25.82;53.68;94533.50;4974223;28;1701;-56
2023/06/11 12:26:01;;;;;;;;;;;;;;;25.89;53.74;94527.75;4974403;28;1307;-56
2023/06/11 12:28:27;;;;;;;;;;;;;;;26.21;53.07;94530.25;4973022;28;2907;-55
2023/06/11 12:30:53;;;;;;;;;;;;;;;26.43;51.45;94540.13;4974402;28;968;-56
2023/06/11 12:33:19;;;;;;;;;;;;;;;26.55;50.49;94532.41;4974021;28;1118;-57
2023/06/11 12:35:45;;;;;;;;;;;;;;;26.55;48.76;94535.16;4957194;28;1062;-58
2023/06/11 12:38:13;;;;;;;;;;;;;;;26.34;50.74;94537.09;4976862;28;1055;-57
2023/06/11 12:40:39;;;;;;;;;;;;;;;26.21;49.89;94527.50;4978067;28;1983;-57
2023/06/11 12:43:06;;;;;;;;;;;;;;;26.19;48.55;94537.09;4977836;28;1070;-56
2023/06/11 12:45:35;;;;;;;;;;;;;;;26.35;51.51;94526.94;4977480;28;1222;-57
2023/06/11 12:48:01;;;;;;;;;;;;;;;26.58;49.56;94534.63;4965099;28;2614;-57
2023/06/11 12:50:27;;;;;;;;;;;;;;;26.71;48.50;94524.19;4977819;28;1046;-57
2023/06/11 12:52:53;;;;;;;;;;;;;;;26.79;48.84;94527.19;4977145;28;2498;-57
2023/06/11 12:55:20;;;;;;;;;;;;;;;26.80;46.09;94525.28;4976877;28;2912;-57
2023/06/11 12:57:46;;;;;;;;;;;;;;;26.79;45.10;94515.41;4977529;28;1063;-57
2023/06/11 13:00:13;;;;;;;;;;;;;;;26.79;47.41;94520.91;4977486;28;972;-57
2023/06/11 13:02:39;;;;;;;;;;;;;;;26.86;47.20;94515.91;4977251;28;1979;-57
2023/06/11 13:05:06;;;;;;;;;;;;;;;26.75;48.59;94519.78;4977370;28;1050;-56
2023/06/11 13:07:32;;;;;;;;;;;;;;;26.75;48.03;94526.13;4977423;28;971;-57
2023/06/11 13:09:58;;;;;;;;;;;;;;;26.75;52.11;94515.16;4977293;28;1047;-56
2023/06/11 13:12:27;;;;;;;;;;;;;;;26.67;50.31;94521.19;4977455;28;1044;-56
2023/06/11 13:14:53;;;;;;;;;;;;;;;26.48;50.68;94523.66;4977272;28;1089;-56
2023/06/11 13:17:20;;;;;;;;;;;;;;;26.45;51.53;94536.00;4977108;28;1082;-56
2023/06/11 13:19:46;;;;;;;;;;;;;;;26.59;51.72;94536.28;4977109;28;1071;-55